Time;durP1;ratioP1;P1;durP2;ratioP2;P2;SDS_P1;SDS_P2;PMS_P1;PMS_P2;Temp;Humidity;BMP_temperature;BMP_pressure;BME280_temperature;BME280_humidity;BME280_pressure;Samples;Min_cycle;Max_cycle;Signal;HPM_P1;HPM_P2
2023/02/16 00:00:05;;;;;;;10.23;9.23;;;17.30;51.80;;;;;;5114692;28;20173;-57
2023/02/16 00:02:30;;;;;;;9.85;8.90;;;17.30;51.80;;;;;;5114458;28;20240;-56
2023/02/16 00:04:56;;;;;;;10.23;9.07;;;17.20;51.80;;;;;;5113473;28;20532;-58
2023/02/16 00:07:21;;;;;;;10.35;9.35;;;17.20;51.80;;;;;;5114366;28;20201;-57
2023/02/16 00:09:47;;;;;;;10.38;9.38;;;17.20;51.80;;;;;;5114014;28;20173;-54
2023/02/16 00:15:17;;;;;;;10.70;9.57;;;17.20;51.80;;;;;;5114467;28;20188;-56
2023/02/16 00:17:42;;;;;;;9.35;8.40;;;17.20;51.80;;;;;;5096567;28;20248;-56
2023/02/16 00:20:15;;;;;;;10.70;9.65;;;17.20;51.70;;;;;;5114107;28;20708;-56
2023/02/16 00:22:40;;;;;;;9.98;8.98;;;17.20;51.70;;;;;;5113731;28;20208;-57
2023/02/16 00:25:07;;;;;;;9.73;8.77;;;17.20;51.70;;;;;;5113308;28;20240;-56
2023/02/16 00:27:32;;;;;;;10.18;9.23;;;17.20;51.80;;;;;;5113685;28;20701;-54
2023/02/16 00:29:58;;;;;;;10.10;9.10;;;17.20;51.80;;;;;;5112957;28;20169;-55
2023/02/16 00:32:23;;;;;;;10.07;9.05;;;17.20;51.80;;;;;;5112037;28;20173;-55
2023/02/16 00:34:49;;;;;;;9.77;8.88;;;17.10;51.80;;;;;;5113573;28;20164;-54
2023/02/16 00:37:14;;;;;;;9.68;8.70;;;17.20;51.80;;;;;;5113735;28;20218;-56
2023/02/16 00:39:40;;;;;;;10.15;9.15;;;17.10;51.80;;;;;;5112876;28;20220;-53
2023/02/16 00:42:09;;;;;;;9.95;9.05;;;17.10;51.80;;;;;;5113627;28;20221;-56
2023/02/16 00:44:51;;;;;;;10.80;9.70;;;17.10;51.80;;;;;;5113493;28;20198;-56
2023/02/16 00:47:26;;;;;;;10.00;9.05;;;17.10;51.90;;;;;;5112053;28;20216;-56
2023/02/16 00:49:52;;;;;;;9.65;8.73;;;17.10;51.90;;;;;;5113353;28;20173;-54
2023/02/16 00:52:28;;;;;;;9.40;8.50;;;17.10;51.80;;;;;;5113105;28;20184;-55
2023/02/16 00:54:54;;;;;;;9.20;8.30;;;17.10;51.90;;;;;;5112324;28;20275;-56
2023/02/16 00:57:20;;;;;;;10.20;9.30;;;17.10;51.90;;;;;;5113457;28;20177;-56
2023/02/16 00:59:46;;;;;;;10.30;9.30;;;17.10;51.80;;;;;;5112589;28;20252;-57
2023/02/16 01:02:11;;;;;;;10.57;9.57;;;17.10;51.90;;;;;;5112053;28;20662;-57
2023/02/16 01:04:37;;;;;;;10.52;9.45;;;17.00;51.80;;;;;;5113075;28;20177;-55
2023/02/16 01:12:37;;;;;;;10.35;9.35;;;17.00;51.80;;;;;;5113096;28;20609;-55
2023/02/16 01:15:05;;;;;;;10.05;9.05;;;17.00;51.80;;;;;;5112537;28;20193;-54
2023/02/16 01:17:30;;;;;;;10.38;9.40;;;17.00;51.90;;;;;;5112053;28;20228;-55
2023/02/16 01:19:56;;;;;;;10.38;9.38;;;17.00;51.80;;;;;;5113092;28;20179;-56
2023/02/16 01:22:21;;;;;;;10.05;9.05;;;17.00;51.80;;;;;;5112659;28;20213;-55
2023/02/16 01:24:47;;;;;;;10.48;9.40;;;17.00;51.80;;;;;;5113069;28;20643;-55
2023/02/16 01:27:12;;;;;;;10.52;9.52;;;17.00;51.80;;;;;;5113189;28;20184;-55
2023/02/16 01:29:38;;;;;;;9.98;9.00;;;16.90;51.80;;;;;;5110957;28;20180;-52
2023/02/16 01:32:03;;;;;;;10.60;9.50;;;17.00;51.80;;;;;;5113198;28;20185;-55
2023/02/16 01:34:29;;;;;;;9.52;8.52;;;16.90;51.80;;;;;;5112537;28;20196;-54
2023/02/16 01:36:55;;;;;;;10.13;9.20;;;16.90;51.80;;;;;;5112778;28;20176;-54
2023/02/16 01:39:20;;;;;;;10.30;9.40;;;17.00;51.90;;;;;;5113204;28;20173;-53
2023/02/16 01:41:57;;;;;;;10.02;9.13;;;16.90;51.80;;;;;;5112034;28;20208;-55
2023/02/16 01:44:28;;;;;;;9.07;8.27;;;16.90;51.80;;;;;;5111904;28;20703;-54
2023/02/16 01:46:56;;;;;;;11.10;9.52;;;16.90;51.80;;;;;;5111490;28;20266;-54
2023/02/16 01:49:21;;;;;;;9.93;9.00;;;16.90;51.80;;;;;;5111133;28;20173;-50
2023/02/16 01:52:02;;;;;;;10.95;9.88;;;16.90;51.80;;;;;;5112973;28;20169;-54
2023/02/16 01:54:34;;;;;;;9.57;8.77;;;16.90;51.80;;;;;;5114970;28;20177;-53
2023/02/16 01:57:09;;;;;;;10.60;9.60;;;16.90;51.80;;;;;;5116411;28;20249;-56
2023/02/16 01:59:40;;;;;;;9.75;8.85;;;16.90;51.80;;;;;;5116410;28;20234;-56
2023/02/16 02:02:13;;;;;;;9.98;9.07;;;16.90;51.80;;;;;;5116666;28;20690;-53
2023/02/16 02:07:53;;;;;;;9.38;8.48;;;16.80;51.70;;;;;;5116489;28;20180;-54
2023/02/16 02:10:20;;;;;;;9.48;8.57;;;16.80;51.70;;;;;;5116103;28;20210;-54
2023/02/16 02:13:00;;;;;;;9.25;8.40;;;16.90;51.80;;;;;;5115343;28;20169;-56
2023/02/16 02:15:26;;;;;;;9.95;9.05;;;16.80;51.80;;;;;;5116537;28;20176;-54
2023/02/16 02:17:52;;;;;;;10.00;9.00;;;16.80;51.70;;;;;;5097154;28;20277;-55
2023/02/16 02:23:37;;;;;;;9.73;8.73;;;16.80;51.70;;;;;;5116400;28;20195;-54
2023/02/16 02:26:26;;;;;;;9.48;8.57;;;16.80;51.70;;;;;;5116586;28;20185;-56
2023/02/16 02:29:06;;;;;;;9.70;8.82;;;16.80;51.70;;;;;;5116095;28;20267;-55
2023/02/16 02:31:49;;;;;;;9.82;8.93;;;16.80;51.70;;;;;;5115537;28;20173;-54
2023/02/16 02:34:25;;;;;;;9.90;8.90;;;16.70;51.70;;;;;;5115275;28;20221;-53
2023/02/16 02:36:58;;;;;;;10.07;9.15;;;16.70;51.70;;;;;;5098182;28;20627;-54
2023/02/16 02:39:51;;;;;;;10.07;9.07;;;16.70;51.70;;;;;;5114286;28;20169;-55
2023/02/16 02:42:31;;;;;;;10.05;9.15;;;16.70;51.70;;;;;;5098872;28;20209;-53
2023/02/16 02:45:07;;;;;;;11.15;9.40;;;16.70;51.70;;;;;;5115309;28;20645;-55
2023/02/16 02:47:40;;;;;;;10.15;9.18;;;16.70;51.70;;;;;;5098648;28;20180;-54
2023/02/16 02:50:39;;;;;;;10.30;9.32;;;16.70;51.70;;;;;;5116108;28;20230;-54
2023/02/16 02:53:09;;;;;;;9.35;8.55;;;16.70;51.70;;;;;;5114206;28;20181;-54
2023/02/16 03:01:03;;;;;;;9.85;8.95;;;16.70;51.70;;;;;;5114935;28;20207;-54
2023/02/16 03:03:35;;;;;;;9.77;8.93;;;16.70;51.70;;;;;;5115782;28;20172;-55
2023/02/16 03:06:16;;;;;;;9.18;8.38;;;16.70;51.70;;;;;;5113731;28;20272;-56
2023/02/16 03:08:43;;;;;;;9.88;8.98;;;16.70;51.70;;;;;;5097780;28;20655;-55
2023/02/16 03:14:06;;;;;;;9.30;8.50;;;16.60;51.60;;;;;;5113816;28;20180;-54
2023/02/16 03:16:43;;;;;;;10.00;9.10;;;16.60;51.60;;;;;;5097213;28;20273;-53
2023/02/16 03:30:12;;;;;;;10.40;9.40;;;16.60;51.70;;;;;;5099703;28;20169;-55
2023/02/16 03:32:37;;;;;;;9.57;8.75;;;16.60;51.60;;;;;;5113919;28;20169;-54
2023/02/16 03:35:03;;;;;;;9.48;8.60;;;16.60;52.30;;;;;;5096498;28;20256;-54
2023/02/16 03:37:29;;;;;;;9.70;8.77;;;16.60;51.70;;;;;;5113762;28;20230;-55
2023/02/16 03:42:38;;;;;;;8.90;8.20;;;16.50;51.60;;;;;;5112941;28;20308;-55
2023/02/16 03:45:04;;;;;;;9.98;9.05;;;16.50;51.60;;;;;;5113890;28;20172;-54
2023/02/16 03:47:29;;;;;;;9.63;8.73;;;16.50;51.60;;;;;;5115021;28;20177;-53
2023/02/16 03:49:55;;;;;;;9.60;8.77;;;16.50;51.60;;;;;;5113808;28;20641;-51
2023/02/16 03:52:20;;;;;;;9.98;9.07;;;16.50;51.60;;;;;;5114716;28;20173;-53
2023/02/16 03:54:46;;;;;;;9.40;8.60;;;16.50;51.60;;;;;;5114364;28;20256;-51
2023/02/16 03:57:12;;;;;;;9.30;8.50;;;16.50;51.60;;;;;;5113771;28;20535;-54
2023/02/16 03:59:37;;;;;;;10.18;9.18;;;16.50;51.60;;;;;;5114385;28;20177;-56
2023/02/16 04:02:03;;;;;;;9.73;8.90;;;16.50;51.60;;;;;;5114405;28;20248;-57
2023/02/16 04:04:28;;;;;;;9.55;8.65;;;16.50;51.70;;;;;;5113991;28;20200;-56
2023/02/16 04:06:54;;;;;;;9.18;8.38;;;16.50;51.60;;;;;;5114187;28;20177;-56
2023/02/16 04:09:19;;;;;;;10.07;9.15;;;16.50;51.60;;;;;;5113771;28;20165;-56
2023/02/16 04:14:29;;;;;;;9.05;8.25;;;16.40;51.50;;;;;;5114333;28;20171;-55
2023/02/16 04:16:55;;;;;;;9.25;8.38;;;16.40;51.50;;;;;;5112544;28;20229;-54
2023/02/16 04:19:23;;;;;;;9.70;8.75;;;16.40;51.60;;;;;;5114218;28;20183;-55
2023/02/16 04:21:49;;;;;;;9.00;8.18;;;16.40;51.60;;;;;;5113713;28;20213;-56
2023/02/16 04:24:14;;;;;;;9.15;8.35;;;16.40;51.70;;;;;;5113254;28;20256;-55
2023/02/16 04:26:40;;;;;;;9.40;8.50;;;16.40;51.60;;;;;;5113980;28;20515;-55
2023/02/16 04:29:05;;;;;;;9.10;8.30;;;16.40;51.60;;;;;;5114111;28;20165;-54
2023/02/16 04:31:31;;;;;;;9.80;8.90;;;16.40;51.60;;;;;;5113431;28;20177;-56
2023/02/16 04:33:56;;;;;;;10.40;9.50;;;16.40;51.60;;;;;;5113903;28;20517;-55
2023/02/16 04:36:22;;;;;;;9.07;8.27;;;16.30;51.50;;;;;;5113923;28;20169;-57
2023/02/16 04:38:47;;;;;;;9.85;8.95;;;16.40;51.60;;;;;;5112679;28;20737;-56
2023/02/16 04:41:13;;;;;;;9.55;8.65;;;16.40;51.60;;;;;;5113683;28;20197;-55
2023/02/16 04:43:38;;;;;;;10.20;8.95;;;16.40;51.60;;;;;;5113438;28;20254;-55
2023/02/16 04:46:04;;;;;;;10.60;9.43;;;16.40;51.60;;;;;;5113120;28;20165;-55
2023/02/16 04:48:29;;;;;;;10.20;9.20;;;16.30;51.60;;;;;;5113677;28;20168;-54
2023/02/16 04:50:55;;;;;;;9.77;8.88;;;16.30;51.60;;;;;;5113259;28;20276;-56
2023/02/16 04:53:20;;;;;;;10.27;9.27;;;16.30;51.60;;;;;;5112867;28;20255;-54
2023/02/16 04:55:47;;;;;;;9.68;8.68;;;16.30;51.60;;;;;;5113127;28;20260;-56
2023/02/16 04:58:13;;;;;;;9.68;8.77;;;16.20;51.60;;;;;;5113354;28;20533;-57
2023/02/16 05:00:39;;;;;;;10.27;9.35;;;16.30;51.60;;;;;;5112501;28;20230;-53
2023/02/16 05:03:04;;;;;;;9.82;8.93;;;16.30;51.60;;;;;;5113533;28;20178;-57
2023/02/16 05:05:30;;;;;;;9.40;8.50;;;16.30;51.60;;;;;;5112793;28;20177;-57
2023/02/16 05:07:55;;;;;;;9.85;8.93;;;16.30;51.60;;;;;;5113231;28;20169;-56
2023/02/16 05:10:21;;;;;;;11.27;10.10;;;16.30;51.60;;;;;;5113311;28;20184;-55
2023/02/16 05:15:30;;;;;;;9.70;8.75;;;16.30;52.30;;;;;;5113319;28;20225;-56
2023/02/16 05:17:56;;;;;;;9.52;8.68;;;16.30;51.60;;;;;;5112888;28;20217;-57
2023/02/16 05:21:28;;;;;;;10.15;9.25;;;16.30;51.70;;;;;;5112534;28;20165;-56
2023/02/16 05:23:07;;;;;;;10.20;9.27;;;16.20;51.60;;;;;;5113097;28;20188;-56
2023/02/16 05:25:33;;;;;;;9.73;8.80;;;16.30;51.70;;;;;;5112835;28;20538;-56
2023/02/16 05:27:58;;;;;;;10.23;9.25;;;16.20;51.60;;;;;;5112427;28;20623;-56
2023/02/16 05:30:24;;;;;;;9.95;9.00;;;16.30;51.70;;;;;;5117008;28;20177;-56
2023/02/16 05:32:49;;;;;;;10.32;9.45;;;16.20;51.60;;;;;;5117589;28;20176;-57
2023/02/16 05:35:15;;;;;;;9.93;8.95;;;16.20;51.60;;;;;;5116789;28;20173;-54
2023/02/16 05:37:40;;;;;;;9.80;8.90;;;16.20;51.60;;;;;;5117377;28;20169;-58
2023/02/16 05:40:07;;;;;;;10.02;9.02;;;16.20;51.60;;;;;;5117390;28;20267;-56
2023/02/16 05:42:32;;;;;;;10.15;9.23;;;16.20;51.60;;;;;;5116303;28;20291;-56
2023/02/16 05:44:58;;;;;;;10.68;9.45;;;16.20;51.60;;;;;;5117161;28;20334;-56
2023/02/16 05:47:23;;;;;;;10.18;9.20;;;16.20;51.60;;;;;;5117041;28;20192;-53
2023/02/16 05:49:49;;;;;;;10.32;9.43;;;16.20;51.60;;;;;;5115805;28;20244;-55
2023/02/16 05:52:14;;;;;;;10.23;9.32;;;16.20;51.60;;;;;;5116710;28;20631;-54
2023/02/16 05:54:40;;;;;;;10.82;9.90;;;16.20;51.60;;;;;;5115706;28;20181;-55
2023/02/16 05:57:05;;;;;;;10.48;9.38;;;16.20;51.60;;;;;;5116650;28;20177;-56
2023/02/16 05:59:31;;;;;;;10.60;9.52;;;16.20;51.60;;;;;;5116771;28;20181;-56
2023/02/16 06:01:56;;;;;;;10.32;9.35;;;16.20;51.60;;;;;;5116003;28;21007;-58
2023/02/16 06:04:22;;;;;;;10.20;9.20;;;16.20;51.60;;;;;;5116544;28;20218;-56
2023/02/16 06:06:48;;;;;;;10.63;9.63;;;16.10;51.60;;;;;;5116325;28;20176;-55
2023/02/16 06:09:13;;;;;;;11.15;10.05;;;16.10;51.60;;;;;;5115953;28;20169;-55
2023/02/16 06:11:39;;;;;;;10.25;9.35;;;16.10;51.60;;;;;;5116320;28;20179;-54
2023/02/16 06:14:06;;;;;;;10.90;9.90;;;16.10;51.60;;;;;;5116582;28;20173;-54
2023/02/16 06:16:32;;;;;;;10.80;9.60;;;16.10;51.60;;;;;;5115176;28;20234;-56
2023/02/16 06:18:58;;;;;;;11.45;10.35;;;16.10;51.60;;;;;;5116205;28;20169;-57
2023/02/16 06:21:23;;;;;;;10.95;9.85;;;16.10;51.70;;;;;;5116328;28;20667;-55
2023/02/16 06:23:49;;;;;;;10.35;9.45;;;16.10;51.70;;;;;;5115450;28;20230;-54
2023/02/16 06:26:15;;;;;;;10.32;9.43;;;16.10;51.60;;;;;;5116266;28;20218;-54
2023/02/16 06:28:40;;;;;;;9.23;8.52;;;16.10;51.70;;;;;;5115909;28;20179;-54
2023/02/16 06:31:06;;;;;;;11.07;9.98;;;16.10;51.70;;;;;;5115436;28;20488;-51
2023/02/16 06:33:32;;;;;;;10.57;9.48;;;16.10;51.70;;;;;;5115946;28;20263;-55
2023/02/16 06:35:57;;;;;;;10.45;9.43;;;16.10;51.70;;;;;;5116271;28;20176;-61
2023/02/16 06:38:23;;;;;;;10.23;9.27;;;16.10;51.70;;;;;;5115511;28;20176;-57
2023/02/16 06:40:51;;;;;;;10.68;9.60;;;16.00;51.70;;;;;;5115149;28;20180;-54
2023/02/16 06:43:17;;;;;;;10.88;9.90;;;16.10;51.70;;;;;;5115986;28;20188;-57
2023/02/16 06:45:42;;;;;;;10.82;9.82;;;16.00;51.60;;;;;;5114955;28;20169;-54
2023/02/16 06:48:08;;;;;;;11.13;10.07;;;16.00;51.60;;;;;;5115576;28;20169;-55
2023/02/16 06:50:33;;;;;;;10.93;9.93;;;16.00;51.70;;;;;;5115553;28;20181;-54
2023/02/16 06:52:59;;;;;;;11.55;10.45;;;16.00;51.70;;;;;;5115231;28;20557;-55
2023/02/16 06:55:24;;;;;;;11.13;10.10;;;16.00;51.70;;;;;;5115539;28;20615;-54
2023/02/16 06:57:50;;;;;;;11.02;9.88;;;16.00;51.70;;;;;;5115281;28;20671;-56
2023/02/16 07:00:15;;;;;;;10.88;9.88;;;16.00;51.70;;;;;;5114708;28;20180;-55
2023/02/16 07:02:42;;;;;;;11.00;10.00;;;16.00;51.70;;;;;;5115100;28;20212;-56
2023/02/16 07:05:08;;;;;;;10.77;9.68;;;16.10;51.60;;;;;;5114871;28;20177;-56
2023/02/16 07:07:33;;;;;;;9.60;8.80;;;16.10;51.60;;;;;;5115138;28;20180;-59
2023/02/16 07:09:59;;;;;;;10.07;9.07;;;16.20;51.60;;;;;;5115296;28;20165;-60
2023/02/16 07:12:24;;;;;;;10.43;9.45;;;16.30;51.90;;;;;;5114275;28;20172;-59
2023/02/16 07:14:50;;;;;;;10.27;9.27;;;16.40;51.60;;;;;;5114830;28;20631;-60
2023/02/16 07:17:16;;;;;;;10.00;9.00;;;16.50;51.60;;;;;;5114654;28;20275;-60
2023/02/16 07:19:41;;;;;;;10.95;9.95;;;16.60;51.70;;;;;;5114010;28;20222;-59
2023/02/16 07:22:07;;;;;;;11.05;9.95;;;16.70;51.70;;;;;;5115017;28;20265;-59
2023/02/16 07:24:32;;;;;;;10.70;9.60;;;16.80;51.90;;;;;;5114450;28;20166;-60
2023/02/16 07:26:58;;;;;;;10.88;9.77;;;16.90;52.10;;;;;;5114192;28;20173;-59
2023/02/16 07:29:23;;;;;;;10.25;9.35;;;17.00;52.20;;;;;;5114603;28;20260;-59
2023/02/16 07:31:50;;;;;;;10.48;9.43;;;17.10;52.20;;;;;;5114327;28;20260;-60
2023/02/16 07:34:15;;;;;;;9.63;8.75;;;17.10;52.30;;;;;;5113962;28;20641;-64
2023/02/16 07:36:44;;;;;;;9.50;8.60;;;17.20;52.10;;;;;;5114457;28;20177;-62
2023/02/16 07:39:10;;;;;;;9.63;8.73;;;17.30;52.10;;;;;;5114763;28;20193;-64
2023/02/16 07:41:35;;;;;;;9.98;8.70;;;17.40;52.00;;;;;;5113686;28;20699;-62
2023/02/16 07:44:01;;;;;;;8.93;8.02;;;17.40;51.80;;;;;;5115004;28;20271;-63
2023/02/16 07:46:26;;;;;;;9.07;8.23;;;17.50;51.70;;;;;;5114472;28;20264;-61
2023/02/16 07:48:52;;;;;;;8.75;7.85;;;17.50;51.60;;;;;;5113592;28;20200;-61
2023/02/16 07:51:24;;;;;;;8.48;7.70;;;17.60;51.60;;;;;;5113585;28;20219;-61
2023/02/16 07:53:50;;;;;;;9.25;8.30;;;17.50;51.40;;;;;;5114265;28;20173;-62
2023/02/16 07:56:23;;;;;;;9.50;8.55;;;17.50;51.40;;;;;;5113783;28;20268;-63
2023/02/16 07:58:55;;;;;;;9.77;8.80;;;17.50;51.40;;;;;;5113952;28;20535;-64
2023/02/16 08:01:21;;;;;;;9.18;8.27;;;17.50;51.50;;;;;;5113513;28;20312;-64
2023/02/16 08:03:47;;;;;;;8.65;7.75;;;17.40;51.60;;;;;;5113794;28;20679;-62
2023/02/16 08:06:12;;;;;;;9.57;8.57;;;17.50;51.70;;;;;;5113897;28;20177;-63
2023/02/16 08:08:38;;;;;;;9.05;8.23;;;17.40;51.50;;;;;;5113017;28;20199;-63
2023/02/16 08:11:14;;;;;;;8.80;8.02;;;17.40;51.80;;;;;;5113981;28;20169;-63
2023/02/16 08:13:40;;;;;;;8.80;8.00;;;17.30;51.80;;;;;;5113563;28;20183;-64
2023/02/16 08:16:13;;;;;;;8.55;7.80;;;17.30;51.80;;;;;;5113052;28;20225;-63
2023/02/16 08:18:40;;;;;;;9.07;8.27;;;17.20;51.90;;;;;;5113675;28;20178;-63
2023/02/16 08:21:13;;;;;;;8.77;7.97;;;17.20;51.90;;;;;;5113775;28;22136;-62
2023/02/16 08:23:58;;;;;;;8.15;7.45;;;17.20;52.00;;;;;;5112860;28;20358;-63
2023/02/16 08:26:25;;;;;;;8.30;7.53;;;17.10;51.90;;;;;;5113691;28;20173;-63
2023/02/16 08:28:51;;;;;;;9.73;8.77;;;17.10;52.00;;;;;;5113410;28;20213;-63
2023/02/16 08:31:18;;;;;;;9.20;8.25;;;17.10;52.00;;;;;;5112890;28;20270;-64
2023/02/16 08:33:44;;;;;;;9.60;8.68;;;17.00;52.10;;;;;;5113239;28;20238;-65
2023/02/16 08:36:16;;;;;;;9.10;8.30;;;17.00;52.30;;;;;;5112998;28;20173;-68
2023/02/16 08:38:42;;;;;;;8.65;7.95;;;16.90;52.40;;;;;;5112835;28;20200;-64
2023/02/16 08:41:08;;;;;;;9.60;8.27;;;16.90;52.50;;;;;;5113723;28;20562;-64
2023/02/16 08:43:34;;;;;;;8.30;7.50;;;16.90;52.50;;;;;;5112488;28;20204;-64
2023/02/16 08:46:00;;;;;;;10.13;9.13;;;16.90;52.50;;;;;;5113878;28;20519;-63
2023/02/16 08:48:27;;;;;;;9.57;8.68;;;16.90;52.60;;;;;;5113295;28;20661;-63
2023/02/16 08:50:53;;;;;;;9.45;8.52;;;16.80;52.40;;;;;;5112378;28;20272;-63
2023/02/16 08:53:20;;;;;;;10.00;9.10;;;16.80;52.30;;;;;;5113642;28;20187;-64
2023/02/16 08:55:55;;;;;;;9.73;8.52;;;16.90;52.40;;;;;;5113211;28;20204;-64
2023/02/16 08:58:21;;;;;;;9.65;8.75;;;16.90;52.40;;;;;;5112366;28;20180;-64
2023/02/16 09:00:48;;;;;;;10.00;9.00;;;17.00;52.40;;;;;;5113231;28;20169;-63
2023/02/16 09:03:15;;;;;;;9.77;8.77;;;17.00;52.30;;;;;;5112967;28;20181;-64
2023/02/16 09:05:40;;;;;;;9.75;8.85;;;17.00;52.30;;;;;;5112168;28;20610;-64
2023/02/16 09:08:06;;;;;;;9.70;8.80;;;17.00;52.30;;;;;;5113526;28;20189;-64
2023/02/16 09:10:31;;;;;;;9.15;8.35;;;17.00;52.20;;;;;;5113154;28;20504;-64
2023/02/16 09:12:57;;;;;;;9.60;8.65;;;17.00;52.80;;;;;;5112536;28;20654;-65
2023/02/16 09:15:23;;;;;;;8.80;8.00;;;17.00;52.30;;;;;;5113179;28;20172;-65
2023/02/16 09:17:48;;;;;;;10.40;9.00;;;16.90;52.20;;;;;;5112677;28;20679;-65
2023/02/16 09:20:14;;;;;;;11.43;8.27;;;16.90;52.30;;;;;;5112268;28;20173;-65
2023/02/16 09:22:43;;;;;;;9.57;8.60;;;16.90;52.20;;;;;;5111658;28;20216;-64
2023/02/16 09:25:10;;;;;;;9.38;8.57;;;16.90;52.40;;;;;;5113140;28;20210;-64
2023/02/16 09:27:35;;;;;;;9.82;8.88;;;16.90;52.40;;;;;;5112095;28;20247;-63
2023/02/16 09:30:01;;;;;;;9.50;8.55;;;16.90;52.40;;;;;;5112394;28;20272;-64
2023/02/16 09:32:28;;;;;;;8.80;8.00;;;16.90;52.30;;;;;;5112052;28;20238;-65
2023/02/16 09:34:54;;;;;;;9.48;8.57;;;16.90;52.30;;;;;;5110852;28;20642;-65
2023/02/16 09:37:22;;;;;;;8.80;8.00;;;16.90;52.30;;;;;;5112165;28;20197;-64
2023/02/16 09:39:48;;;;;;;9.63;8.65;;;16.80;52.30;;;;;;5111075;28;20176;-64
2023/02/16 09:42:24;;;;;;;9.65;8.70;;;16.80;52.20;;;;;;5111920;28;20216;-64
2023/02/16 09:45:01;;;;;;;10.82;9.80;;;16.80;52.30;;;;;;5112292;28;20657;-63
2023/02/16 09:47:29;;;;;;;9.65;8.65;;;16.70;52.20;;;;;;5111184;28;20176;-63
2023/02/16 09:49:59;;;;;;;9.57;8.75;;;16.70;52.20;;;;;;5112838;28;20165;-63
2023/02/16 09:52:32;;;;;;;9.05;8.18;;;16.70;52.20;;;;;;5111601;28;20697;-63
2023/02/16 09:54:58;;;;;;;10.23;9.15;;;16.70;52.30;;;;;;5110855;28;20169;-64
2023/02/16 09:57:36;;;;;;;10.05;8.95;;;16.70;52.30;;;;;;5111544;28;20226;-65
2023/02/16 10:00:10;;;;;;;9.43;8.52;;;16.70;52.30;;;;;;5112697;28;20233;-65
2023/02/16 10:02:59;;;;;;;9.98;9.00;;;16.70;52.20;;;;;;5110753;28;20217;-64
2023/02/16 10:05:30;;;;;;;9.05;8.15;;;16.70;52.20;;;;;;5112664;28;20545;-64
2023/02/16 10:08:15;;;;;;;8.98;8.18;;;16.80;52.20;;;;;;5110581;28;20282;-64
2023/02/16 10:11:36;;;;;;;9.80;8.40;;;16.70;52.20;;;;;;5111402;28;20288;-64
2023/02/16 10:14:12;;;;;;;9.27;8.43;;;16.70;52.20;;;;;;5080395;28;20177;-64
2023/02/16 10:16:46;;;;;;;10.77;9.68;;;16.60;52.20;;;;;;5097954;28;20228;-64
2023/02/16 10:19:24;;;;;;;12.77;9.55;;;16.60;52.30;;;;;;5099138;28;20176;-64
2023/02/16 10:21:52;;;;;;;9.77;8.77;;;16.60;52.20;;;;;;5116259;28;20261;-64
2023/02/16 10:24:18;;;;;;;9.27;8.48;;;16.60;52.30;;;;;;5114881;28;20177;-64
2023/02/16 10:26:53;;;;;;;9.00;8.10;;;16.60;52.30;;;;;;5114677;28;20180;-64
2023/02/16 10:29:20;;;;;;;9.48;8.55;;;16.60;52.20;;;;;;5114481;28;20173;-64
2023/02/16 10:32:17;;;;;;;9.23;8.32;;;16.70;52.20;;;;;;5115781;28;20542;-65
2023/02/16 10:34:45;;;;;;;9.65;8.75;;;16.70;52.20;;;;;;5115896;28;20260;-65
2023/02/16 10:37:29;;;;;;;10.23;9.23;;;16.60;52.10;;;;;;5115402;28;20185;-64
2023/02/16 10:40:16;;;;;;;8.32;7.53;;;16.60;52.10;;;;;;5099130;28;20172;-64
2023/02/16 10:42:43;;;;;;;9.60;8.60;;;16.60;52.10;;;;;;5114505;28;20223;-64
2023/02/16 10:45:20;;;;;;;10.50;9.40;;;16.60;52.20;;;;;;5113979;28;20653;-63
2023/02/16 10:47:46;;;;;;;9.30;8.50;;;16.60;52.20;;;;;;5115607;28;20180;-63
2023/02/16 10:50:34;;;;;;;9.57;8.23;;;16.60;52.30;;;;;;5115371;28;20697;-63
2023/02/16 10:53:03;;;;;;;9.80;8.90;;;16.60;52.50;;;;;;5107628;28;20181;-64
2023/02/16 10:55:29;;;;;;;10.68;8.77;;;16.60;52.10;;;;;;5114624;28;20173;-64
2023/02/16 10:57:56;;;;;;;9.20;8.40;;;16.70;52.20;;;;;;5114662;28;20205;-65
2023/02/16 11:00:36;;;;;;;10.05;9.05;;;16.70;52.20;;;;;;5097522;28;20181;-65
2023/02/16 11:03:02;;;;;;;9.80;8.80;;;16.70;52.10;;;;;;5114560;28;20235;-64
2023/02/16 11:05:29;;;;;;;9.95;9.05;;;16.60;52.10;;;;;;5114973;28;20580;-64
2023/02/16 11:07:56;;;;;;;9.65;8.73;;;16.60;52.10;;;;;;5115233;28;20180;-64
2023/02/16 11:10:49;;;;;;;9.00;8.18;;;16.60;52.10;;;;;;5115644;28;20248;-64
2023/02/16 11:13:26;;;;;;;9.27;8.43;;;16.60;52.20;;;;;;5113780;28;20177;-64
2023/02/16 11:15:53;;;;;;;9.93;9.02;;;16.60;52.30;;;;;;5115086;28;20270;-65
2023/02/16 11:18:30;;;;;;;9.27;8.27;;;16.60;52.30;;;;;;5114731;28;20531;-65
2023/02/16 11:20:56;;;;;;;10.35;9.35;;;16.60;52.20;;;;;;5113892;28;20628;-65
2023/02/16 11:23:39;;;;;;;9.07;8.18;;;16.70;52.20;;;;;;5115117;28;20670;-64
2023/02/16 11:26:10;;;;;;;8.60;7.70;;;16.70;52.00;;;;;;5113085;28;20538;-65
2023/02/16 11:28:46;;;;;;;9.45;8.65;;;16.80;52.00;;;;;;5114936;28;20165;-64
2023/02/16 11:31:31;;;;;;;10.05;9.05;;;16.90;51.90;;;;;;5115054;28;20653;-64
2023/02/16 11:34:00;;;;;;;9.48;8.48;;;16.90;51.80;;;;;;5114397;28;20181;-66
2023/02/16 11:36:33;;;;;;;9.90;8.93;;;17.00;51.80;;;;;;5113966;28;20257;-65
2023/02/16 11:39:00;;;;;;;9.50;8.55;;;17.10;51.70;;;;;;5113503;28;20173;-63
2023/02/16 11:41:26;;;;;;;9.05;8.15;;;17.10;51.60;;;;;;5113843;28;20212;-63
2023/02/16 11:43:51;;;;;;;9.18;8.35;;;17.10;51.50;;;;;;5113297;28;20180;-63
2023/02/16 11:46:18;;;;;;;9.55;8.57;;;17.10;51.60;;;;;;5113166;28;20233;-63
2023/02/16 11:48:44;;;;;;;9.20;8.30;;;17.10;51.60;;;;;;5114431;28;20574;-62
2023/02/16 11:51:10;;;;;;;9.20;8.30;;;17.10;51.60;;;;;;5114874;28;20679;-63
2023/02/16 11:53:41;;;;;;;9.38;8.48;;;17.00;51.60;;;;;;5113753;28;20173;-64
2023/02/16 11:56:23;;;;;;;9.55;8.55;;;16.90;51.60;;;;;;5114768;28;20214;-64
2023/02/16 11:59:13;;;;;;;8.80;8.02;;;17.00;51.60;;;;;;5114136;28;20645;-65
2023/02/16 12:01:55;;;;;;;9.82;8.82;;;17.00;51.60;;;;;;5112555;28;20223;-64
2023/02/16 12:04:44;;;;;;;9.95;8.52;;;17.10;51.70;;;;;;5113549;28;20206;-63
2023/02/16 12:07:25;;;;;;;9.02;8.23;;;17.10;51.60;;;;;;5113598;28;20580;-63
2023/02/16 12:10:02;;;;;;;8.70;8.00;;;17.20;51.50;;;;;;5114081;28;20590;-64
2023/02/16 12:12:40;;;;;;;8.98;8.02;;;17.10;51.40;;;;;;5114323;28;20173;-63
2023/02/16 12:15:11;;;;;;;9.15;8.25;;;17.10;51.50;;;;;;5113540;28;20172;-64
2023/02/16 12:17:40;;;;;;;10.63;8.45;;;17.10;51.50;;;;;;5113688;28;20320;-64
2023/02/16 12:20:29;;;;;;;9.13;8.23;;;17.10;51.50;;;;;;5114229;28;20161;-63
2023/02/16 12:23:03;;;;;;;9.43;8.45;;;17.10;51.60;;;;;;5083014;28;20252;-64
2023/02/16 12:25:35;;;;;;;9.10;8.20;;;17.10;51.70;;;;;;5114092;28;20283;-63
2023/02/16 12:28:25;;;;;;;9.02;8.15;;;17.10;51.70;;;;;;5112899;28;20184;-64
2023/02/16 12:31:10;;;;;;;9.40;8.50;;;17.10;51.70;;;;;;5112072;28;20556;-64
2023/02/16 12:33:48;;;;;;;8.60;7.65;;;17.10;51.60;;;;;;5113686;28;20176;-64
2023/02/16 12:36:27;;;;;;;8.73;7.93;;;17.20;51.50;;;;;;5096290;28;20161;-63
2023/02/16 12:39:00;;;;;;;8.75;7.95;;;17.20;51.60;;;;;;5111971;28;20173;-64
2023/02/16 12:41:36;;;;;;;9.25;8.32;;;17.20;51.50;;;;;;5112541;28;20271;-63
2023/02/16 12:44:05;;;;;;;8.77;7.97;;;17.10;51.50;;;;;;5111905;28;20176;-63
2023/02/16 12:46:34;;;;;;;9.32;8.38;;;17.10;51.60;;;;;;5112310;28;20173;-62
2023/02/16 12:49:24;;;;;;;8.77;7.95;;;17.10;51.70;;;;;;5112484;28;20234;-62
2023/02/16 12:52:17;;;;;;;9.00;8.20;;;17.10;51.70;;;;;;5111478;28;20229;-63
2023/02/16 12:54:49;;;;;;;8.77;7.97;;;17.10;51.90;;;;;;5112242;28;20183;-63
2023/02/16 12:57:16;;;;;;;9.70;8.63;;;17.10;51.80;;;;;;5095151;28;20193;-64
2023/02/16 13:00:00;;;;;;;8.63;7.93;;;17.20;51.80;;;;;;5095289;28;20187;-64
2023/02/16 13:02:35;;;;;;;8.90;8.10;;;17.20;51.70;;;;;;5113442;28;20209;-64
2023/02/16 13:05:27;;;;;;;8.80;8.00;;;17.20;51.70;;;;;;5111411;28;20173;-63
2023/02/16 13:08:00;;;;;;;9.68;8.68;;;17.20;51.70;;;;;;5112095;28;20177;-63
2023/02/16 13:11:06;;;;;;;9.60;8.23;;;17.10;51.80;;;;;;5095649;28;20699;-63
2023/02/16 13:13:33;;;;;;;8.88;7.97;;;17.10;51.90;;;;;;5073658;28;20212;-64
2023/02/16 13:16:12;;;;;;;8.90;8.10;;;17.10;51.90;;;;;;5111962;28;20221;-64
2023/02/16 13:18:39;;;;;;;8.80;7.57;;;17.10;51.90;;;;;;5111033;28;20184;-64
2023/02/16 13:21:27;;;;;;;8.60;7.90;;;17.10;52.00;;;;;;5111946;28;20263;-63
2023/02/16 13:24:28;;;;;;;8.88;7.75;;;17.10;52.00;;;;;;5112803;28;20185;-63
2023/02/16 13:27:02;;;;;;;8.13;7.43;;;17.10;52.00;;;;;;5087915;28;20185;-63
2023/02/16 13:29:51;;;;;;;8.90;8.10;;;17.10;51.90;;;;;;5113118;28;20176;-64
2023/02/16 13:32:29;;;;;;;8.82;8.02;;;17.10;51.90;;;;;;5112249;28;20256;-64
2023/02/16 13:35:16;;;;;;;8.75;7.78;;;17.10;51.80;;;;;;5112665;28;20635;-64
2023/02/16 13:38:00;;;;;;;9.05;8.13;;;17.20;51.80;;;;;;5111583;28;20539;-64
2023/02/16 13:40:48;;;;;;;8.30;7.53;;;17.10;51.90;;;;;;5111386;28;20177;-63